Time,TemperatureF,DewpointF,PressureIn,WindDirection,WindDirectionDegrees,WindSpeedMPH,WindSpeedGustMPH,Humidity,HourlyPrecipIn,Conditions,Clouds,dailyrainin,SoftwareType,DateUTC
2014-01-02 00:07:00,48.6,48.0,28.83,West,270,3.0,6.0,98,-99.99,,,-99.99,meteohub,2014-01-02 00:07:00,
2014-01-02 00:12:00,48.2,47.7,28.83,WSW,248,3.0,4.0,98,-99.99,,,-99.99,meteohub,2014-01-02 00:12:00,
2014-01-02 00:17:00,48.2,47.7,28.83,NNE,22,6.0,6.0,98,-99.99,,,-99.99,meteohub,2014-01-02 00:17:00,
2014-01-02 00:22:00,48.2,47.7,28.83,NNE,22,2.0,6.0,98,-99.99,,,-99.99,meteohub,2014-01-02 00:22:00,
2014-01-02 00:27:00,48.2,47.7,28.83,WSW,248,4.0,6.0,98,-99.99,,,-99.99,meteohub,2014-01-02 00:27:00,
2014-01-02 00:32:00,48.2,47.7,28.83,WNW,292,2.0,8.0,98,-99.99,,,-99.99,meteohub,2014-01-02 00:32:00,
2014-01-02 00:37:00,48.0,47.5,28.83,NNW,338,5.0,8.0,98,-99.99,,,-99.99,meteohub,2014-01-02 00:37:00,
2014-01-02 00:42:00,47.8,47.3,28.83,WSW,248,3.0,8.0,98,-99.99,,,-99.99,meteohub,2014-01-02 00:42:00,
2014-01-02 00:47:00,47.8,47.3,28.83,WNW,292,1.0,7.0,98,-99.99,,,-99.99,meteohub,2014-01-02 00:47:00,
2014-01-02 00:57:00,47.8,47.3,28.83,WNW,292,3.0,6.0,98,-99.99,,,-99.99,meteohub,2014-01-02 00:57:00,
2014-01-02 01:02:00,47.8,47.3,28.83,NNW,338,2.0,6.0,98,-99.99,,,-99.99,meteohub,2014-01-02 01:02:00,
2014-01-02 01:07:00,47.8,47.3,28.83,WNW,292,2.0,6.0,98,-99.99,,,-99.99,meteohub,2014-01-02 01:07:00,
2014-01-02 01:12:00,47.8,47.3,28.83,WNW,292,2.0,6.0,98,-99.99,,,-99.99,meteohub,2014-01-02 01:12:00,
2014-01-02 01:17:00,48.0,47.5,28.83,WSW,248,3.0,6.0,98,-99.99,,,-99.99,meteohub,2014-01-02 01:17:00,
2014-01-02 01:22:00,48.0,47.5,28.83,WNW,292,2.0,5.0,98,-99.99,,,-99.99,meteohub,2014-01-02 01:22:00,
2014-01-02 01:27:00,48.0,47.5,28.83,North,0,3.0,5.0,98,-99.99,,,-99.99,meteohub,2014-01-02 01:27:00,
2014-01-02 01:32:00,48.0,47.5,28.83,North,0,3.0,6.0,98,-99.99,,,-99.99,meteohub,2014-01-02 01:32:00,
2014-01-02 01:37:00,48.0,47.5,28.83,North,0,4.0,6.0,98,-99.99,,,-99.99,meteohub,2014-01-02 01:37:00,
2014-01-02 01:42:00,48.0,47.5,28.83,WNW,292,0.0,7.0,98,-99.99,,,-99.99,meteohub,2014-01-02 01:42:00,
2014-01-02 01:47:00,47.8,47.3,28.86,ENE,68,2.0,7.0,98,-99.99,,,-99.99,meteohub,2014-01-02 01:47:00,
2014-01-02 01:52:00,47.8,47.3,28.86,WNW,292,1.0,6.0,98,-99.99,,,-99.99,meteohub,2014-01-02 01:52:00,
2014-01-02 01:57:00,47.8,47.3,28.86,WSW,248,2.0,5.0,98,-99.99,,,-99.99,meteohub,2014-01-02 01:57:00,
2014-01-02 02:02:00,47.7,47.1,28.86,NNW,338,3.0,6.0,98,-99.99,,,-99.99,meteohub,2014-01-02 02:02:00,
2014-01-02 02:07:00,47.3,46.8,28.86,NNW,338,3.0,6.0,98,-99.99,,,-99.99,meteohub,2014-01-02 02:07:00,
2014-01-02 02:12:00,47.3,46.8,28.86,West,270,4.0,6.0,98,-99.99,,,-99.99,meteohub,2014-01-02 02:12:00,
2014-01-02 02:17:00,47.1,46.6,28.86,NNW,338,1.0,5.0,98,-99.99,,,-99.99,meteohub,2014-01-02 02:17:00,
2014-01-02 02:22:00,47.1,46.6,28.86,WNW,292,3.0,5.0,98,-99.99,,,-99.99,meteohub,2014-01-02 02:22:00,
2014-01-02 02:27:00,47.1,46.6,28.86,NW,315,4.0,5.0,98,-99.99,,,-99.99,meteohub,2014-01-02 02:27:00,
2014-01-02 02:32:00,47.1,46.6,28.86,WNW,292,3.0,4.0,98,-99.99,,,-99.99,meteohub,2014-01-02 02:32:00,
2014-01-02 02:37:00,47.1,46.6,28.86,WSW,248,3.0,8.0,98,-99.99,,,-99.99,meteohub,2014-01-02 02:37:00,
2014-01-02 02:42:00,47.3,46.8,28.86,NW,315,3.0,8.0,98,-99.99,,,-99.99,meteohub,2014-01-02 02:42:00,
2014-01-02 02:47:00,47.1,46.6,28.86,WNW,292,2.0,6.0,98,-99.99,,,-99.99,meteohub,2014-01-02 02:47:00,
2014-01-02 02:52:00,47.1,46.6,28.86,WNW,292,4.0,8.0,98,-99.99,,,-99.99,meteohub,2014-01-02 02:52:00,
2014-01-02 02:57:00,47.1,46.6,28.86,NW,315,2.0,8.0,98,-99.99,,,-99.99,meteohub,2014-01-02 02:57:00,
2014-01-02 03:02:00,46.9,46.4,28.86,WNW,292,2.0,6.0,98,-99.99,,,-99.99,meteohub,2014-01-02 03:02:00,
2014-01-02 03:07:00,46.9,46.4,28.86,West,270,6.0,6.0,98,-99.99,,,-99.99,meteohub,2014-01-02 03:07:00,
2014-01-02 03:12:00,47.1,46.6,28.86,West,270,2.0,6.0,98,-99.99,,,-99.99,meteohub,2014-01-02 03:12:00,
2014-01-02 03:17:00,47.1,46.6,28.86,NNE,22,3.0,6.0,98,-99.99,,,-99.99,meteohub,2014-01-02 03:17:00,
2014-01-02 03:22:00,46.9,46.4,28.86,WSW,248,1.0,6.0,98,-99.99,,,-99.99,meteohub,2014-01-02 03:22:00,
2014-01-02 03:27:00,46.9,46.4,28.86,NNW,338,0.0,5.0,98,-99.99,,,-99.99,meteohub,2014-01-02 03:27:00,
2014-01-02 03:32:00,46.9,46.4,28.86,ESE,112,3.0,4.0,98,-99.99,,,-99.99,meteohub,2014-01-02 03:32:00,
2014-01-02 03:37:00,46.8,46.2,28.86,NNW,338,0.0,4.0,98,-99.99,,,-99.99,meteohub,2014-01-02 03:37:00,
2014-01-02 03:42:00,46.6,46.0,28.86,WNW,292,1.0,4.0,98,-99.99,,,-99.99,meteohub,2014-01-02 03:42:00,
2014-01-02 03:47:00,46.6,46.0,28.86,NNW,338,1.0,6.0,98,-99.99,,,-99.99,meteohub,2014-01-02 03:47:00,
2014-01-02 03:52:00,46.6,46.0,28.86,NNE,22,2.0,6.0,98,-99.99,,,-99.99,meteohub,2014-01-02 03:52:00,
2014-01-02 03:57:00,46.6,46.0,28.86,ENE,68,3.0,6.0,98,-99.99,,,-99.99,meteohub,2014-01-02 03:57:00,
2014-01-02 04:02:00,46.8,46.2,28.89,ESE,112,4.0,4.0,98,-99.99,,,-99.99,meteohub,2014-01-02 04:02:00,
2014-01-02 04:07:00,46.8,46.2,28.89,ENE,68,3.0,4.0,98,-99.99,,,-99.99,meteohub,2014-01-02 04:07:00,
2014-01-02 04:12:00,46.8,46.2,28.89,NNE,22,3.0,4.0,98,-99.99,,,-99.99,meteohub,2014-01-02 04:12:00,
2014-01-02 04:17:00,46.8,46.2,28.89,SSW,202,3.0,4.0,98,-99.99,,,-99.99,meteohub,2014-01-02 04:17:00,
2014-01-02 04:22:00,46.8,46.2,28.89,WSW,248,0.0,4.0,98,-99.99,,,-99.99,meteohub,2014-01-02 04:22:00,
2014-01-02 04:27:00,46.8,46.2,28.89,NW,315,2.0,4.0,98,-99.99,,,-99.99,meteohub,2014-01-02 04:27:00,
2014-01-02 04:32:00,46.8,46.2,28.89,ENE,68,3.0,4.0,98,-99.99,,,-99.99,meteohub,2014-01-02 04:32:00,
2014-01-02 04:37:00,46.6,46.0,28.89,ENE,68,3.0,4.0,98,-99.99,,,-99.99,meteohub,2014-01-02 04:37:00,
2014-01-02 04:42:00,46.6,46.0,28.89,North,0,4.0,6.0,98,-99.99,,,-99.99,meteohub,2014-01-02 04:42:00,
2014-01-02 04:47:00,46.4,45.9,28.92,WNW,292,1.0,6.0,98,-99.99,,,-99.99,meteohub,2014-01-02 04:47:00,
2014-01-02 04:52:00,46.4,45.9,28.92,NW,315,1.0,6.0,98,-99.99,,,-99.99,meteohub,2014-01-02 04:52:00,
2014-01-02 04:57:00,46.2,45.7,28.92,NNE,22,2.0,4.0,98,-99.99,,,-99.99,meteohub,2014-01-02 04:57:00,
2014-01-02 05:02:00,46.0,45.5,28.92,NNE,22,4.0,4.0,98,-99.99,,,-99.99,meteohub,2014-01-02 05:02:00,
2014-01-02 05:07:00,45.5,45.0,28.92,NNW,338,1.0,4.0,98,-99.99,,,-99.99,meteohub,2014-01-02 05:07:00,
2014-01-02 05:12:00,45.3,44.8,28.92,NNE,22,4.0,4.0,98,-99.99,,,-99.99,meteohub,2014-01-02 05:12:00,
2014-01-02 05:17:00,45.1,44.6,28.95,NNW,338,2.0,4.0,98,-99.99,,,-99.99,meteohub,2014-01-02 05:17:00,
2014-01-02 05:22:00,44.8,44.2,28.95,ENE,68,2.0,4.0,98,-99.99,,,-99.99,meteohub,2014-01-02 05:22:00,
2014-01-02 05:27:00,44.6,44.1,28.95,ESE,112,4.0,4.0,98,-99.99,,,-99.99,meteohub,2014-01-02 05:27:00,
2014-01-02 05:32:00,44.2,43.7,28.95,SSE,158,0.0,4.0,98,-99.99,,,-99.99,meteohub,2014-01-02 05:32:00,
2014-01-02 05:37:00,44.1,43.5,28.95,ENE,68,2.0,4.0,98,-99.99,,,-99.99,meteohub,2014-01-02 05:37:00,
2014-01-02 05:42:00,43.7,43.2,28.95,NNE,22,3.0,4.0,98,-99.99,,,-99.99,meteohub,2014-01-02 05:42:00,
2014-01-02 05:47:00,43.5,43.0,28.98,NNE,22,3.0,5.0,98,-99.99,,,-99.99,meteohub,2014-01-02 05:47:00,
2014-01-02 05:52:00,43.3,42.8,28.98,ENE,68,1.0,5.0,98,-99.99,,,-99.99,meteohub,2014-01-02 05:52:00,
2014-01-02 05:57:00,43.3,42.8,28.98,ENE,68,3.0,4.0,98,-99.99,,,-99.99,meteohub,2014-01-02 05:57:00,
2014-01-02 06:02:00,43.2,42.6,28.98,NNE,22,2.0,4.0,98,-99.99,,,-99.99,meteohub,2014-01-02 06:02:00,
2014-01-02 06:07:00,43.2,42.6,28.98,NW,315,2.0,4.0,98,-99.99,,,-99.99,meteohub,2014-01-02 06:07:00,
2014-01-02 06:12:00,43.0,42.4,28.98,NNE,22,2.0,4.0,98,-99.99,,,-99.99,meteohub,2014-01-02 06:12:00,
2014-01-02 06:17:00,43.0,42.4,28.98,NNE,22,3.0,5.0,98,-99.99,,,-99.99,meteohub,2014-01-02 06:17:00,
2014-01-02 06:22:00,43.0,42.4,28.98,NNE,22,3.0,5.0,98,-99.99,,,-99.99,meteohub,2014-01-02 06:22:00,
2014-01-02 06:27:00,42.8,42.3,28.98,NNE,22,2.0,5.0,98,-99.99,,,-99.99,meteohub,2014-01-02 06:27:00,
2014-01-02 06:32:00,42.8,42.3,29.01,ENE,68,1.0,5.0,98,-99.99,,,-99.99,meteohub,2014-01-02 06:32:00,
2014-01-02 06:37:00,42.4,41.9,29.01,WSW,248,2.0,5.0,98,-99.99,,,-99.99,meteohub,2014-01-02 06:37:00,
2014-01-02 06:42:00,42.3,41.7,29.01,SSE,158,4.0,4.0,98,-99.99,,,-99.99,meteohub,2014-01-02 06:42:00,
2014-01-02 06:47:00,42.3,41.7,29.01,ESE,112,1.0,4.0,98,-99.99,,,-99.99,meteohub,2014-01-02 06:47:00,
2014-01-02 06:52:00,42.1,41.5,29.01,ENE,68,1.0,4.0,98,-99.99,,,-99.99,meteohub,2014-01-02 06:52:00,
2014-01-02 06:57:00,42.1,41.5,29.01,South,180,2.0,4.0,98,-99.99,,,-99.99,meteohub,2014-01-02 06:57:00,
2014-01-02 07:02:00,42.1,41.5,29.04,NNW,338,3.0,4.0,98,-99.99,,,-99.99,meteohub,2014-01-02 07:02:00,
2014-01-02 07:07:00,42.1,41.5,29.04,NNW,338,2.0,6.0,98,-99.99,,,-99.99,meteohub,2014-01-02 07:07:00,
2014-01-02 07:12:00,41.7,41.2,29.04,WNW,292,1.0,6.0,98,-99.99,,,-99.99,meteohub,2014-01-02 07:12:00,
2014-01-02 07:17:00,41.7,41.2,29.04,ESE,112,4.0,6.0,98,-99.99,,,-99.99,meteohub,2014-01-02 07:17:00,
2014-01-02 07:22:00,41.7,41.2,29.04,ENE,68,2.0,5.0,98,-99.99,,,-99.99,meteohub,2014-01-02 07:22:00,
2014-01-02 07:27:00,41.5,41.0,29.04,NNE,22,2.0,5.0,98,-99.99,,,-99.99,meteohub,2014-01-02 07:27:00,
2014-01-02 07:37:00,41.5,41.0,29.07,NNW,338,0.0,5.0,98,-99.99,,,-99.99,meteohub,2014-01-02 07:37:00,
2014-01-02 07:42:00,41.4,40.8,29.07,ESE,112,3.0,5.0,98,-99.99,,,-99.99,meteohub,2014-01-02 07:42:00,
2014-01-02 07:47:00,41.4,40.8,29.07,NW,315,1.0,5.0,98,-99.99,,,-99.99,meteohub,2014-01-02 07:47:00,
2014-01-02 07:52:00,41.2,40.6,29.07,NNE,22,2.0,4.0,98,-99.99,,,-99.99,meteohub,2014-01-02 07:52:00,
2014-01-02 08:02:00,41.2,40.6,29.07,North,0,1.0,4.0,98,-99.99,,,-99.99,meteohub,2014-01-02 08:02:00,
2014-01-02 08:07:00,41.2,40.6,29.07,ENE,68,3.0,4.0,98,-99.99,,,-99.99,meteohub,2014-01-02 08:07:00,
2014-01-02 08:12:00,41.2,40.6,29.07,WSW,248,3.0,6.0,98,-99.99,,,-99.99,meteohub,2014-01-02 08:12:00,
2014-01-02 08:17:00,41.2,40.6,29.10,NNE,22,3.0,6.0,98,-99.99,,,-99.99,meteohub,2014-01-02 08:17:00,
2014-01-02 08:22:00,41.2,40.6,29.10,NNW,338,1.0,4.0,98,-99.99,,,-99.99,meteohub,2014-01-02 08:22:00,
2014-01-02 08:27:00,41.4,40.8,29.10,WNW,292,4.0,6.0,98,-99.99,,,-99.99,meteohub,2014-01-02 08:27:00,
2014-01-02 08:32:00,41.2,40.6,29.10,NNE,22,1.0,6.0,98,-99.99,,,-99.99,meteohub,2014-01-02 08:32:00,
2014-01-02 08:37:00,41.2,40.6,29.10,NNE,22,2.0,6.0,98,-99.99,,,-99.99,meteohub,2014-01-02 08:37:00,
2014-01-02 08:42:00,41.0,40.5,29.10,ENE,68,2.0,2.0,98,-99.99,,,-99.99,meteohub,2014-01-02 08:42:00,
2014-01-02 08:47:00,40.8,40.3,29.10,NE,45,0.0,2.0,98,-99.99,,,-99.99,meteohub,2014-01-02 08:47:00,
2014-01-02 08:52:00,41.0,40.5,29.10,NNW,338,4.0,4.0,98,-99.99,,,-99.99,meteohub,2014-01-02 08:52:00,
2014-01-02 08:57:00,41.0,40.5,29.10,NNE,22,2.0,4.0,98,-99.99,,,-99.99,meteohub,2014-01-02 08:57:00,
2014-01-02 09:02:00,41.2,40.6,29.10,NNE,22,1.0,4.0,98,-99.99,,,-99.99,meteohub,2014-01-02 09:02:00,
2014-01-02 09:07:00,41.0,40.5,29.10,ENE,68,0.0,4.0,98,-99.99,,,-99.99,meteohub,2014-01-02 09:07:00,
2014-01-02 09:12:00,41.2,40.6,29.10,ESE,112,1.0,3.0,98,-99.99,,,-99.99,meteohub,2014-01-02 09:12:00,
2014-01-02 09:17:00,41.5,41.0,29.13,NNE,22,4.0,4.0,98,-99.99,,,-99.99,meteohub,2014-01-02 09:17:00,
2014-01-02 09:22:00,41.7,41.2,29.13,NNW,338,1.0,4.0,98,-99.99,,,-99.99,meteohub,2014-01-02 09:22:00,
2014-01-02 09:27:00,41.9,41.4,29.13,WNW,292,2.0,4.0,98,-99.99,,,-99.99,meteohub,2014-01-02 09:27:00,
2014-01-02 09:32:00,42.3,41.7,29.13,NNW,338,2.0,4.0,98,-99.99,,,-99.99,meteohub,2014-01-02 09:32:00,
2014-01-02 09:37:00,42.4,41.9,29.13,NNW,338,2.0,4.0,98,-99.99,,,-99.99,meteohub,2014-01-02 09:37:00,
2014-01-02 09:42:00,42.6,42.1,29.13,NNW,338,2.0,5.0,98,-99.99,,,-99.99,meteohub,2014-01-02 09:42:00,
2014-01-02 09:47:00,43.0,42.4,29.13,NNE,22,3.0,5.0,98,-99.99,,,-99.99,meteohub,2014-01-02 09:47:00,
2014-01-02 09:52:00,43.2,42.6,29.13,NNE,22,0.0,5.0,98,-99.99,,,-99.99,meteohub,2014-01-02 09:52:00,
2014-01-02 09:57:00,43.3,42.8,29.13,NNW,338,2.0,6.0,98,-99.99,,,-99.99,meteohub,2014-01-02 09:57:00,
2014-01-02 10:02:00,43.5,43.0,29.16,NNW,338,3.0,6.0,98,-99.99,,,-99.99,meteohub,2014-01-02 10:02:00,
2014-01-02 10:07:00,43.9,43.3,29.16,NNW,338,3.0,6.0,98,-99.99,,,-99.99,meteohub,2014-01-02 10:07:00,
2014-01-02 10:12:00,44.1,43.5,29.16,NNE,22,3.0,9.0,98,-99.99,,,-99.99,meteohub,2014-01-02 10:12:00,
2014-01-02 10:17:00,44.2,43.7,29.16,North,0,3.0,9.0,98,-99.99,,,-99.99,meteohub,2014-01-02 10:17:00,
2014-01-02 10:22:00,44.4,43.9,29.16,NNE,22,2.0,9.0,98,-99.99,,,-99.99,meteohub,2014-01-02 10:22:00,
2014-01-02 10:27:00,44.6,44.1,29.16,South,180,2.0,5.0,98,-99.99,,,-99.99,meteohub,2014-01-02 10:27:00,
2014-01-02 10:32:00,44.8,44.2,29.16,NNE,22,2.0,5.0,98,-99.99,,,-99.99,meteohub,2014-01-02 10:32:00,
2014-01-02 10:37:00,45.0,44.4,29.16,ESE,112,5.0,5.0,98,-99.99,,,-99.99,meteohub,2014-01-02 10:37:00,
2014-01-02 10:42:00,45.1,44.6,29.16,NNW,338,4.0,6.0,98,-99.99,,,-99.99,meteohub,2014-01-02 10:42:00,
2014-01-02 10:47:00,45.5,45.0,29.16,WSW,248,3.0,6.0,98,-99.99,,,-99.99,meteohub,2014-01-02 10:47:00,
2014-01-02 10:52:00,48.9,48.4,29.16,ENE,68,2.0,6.0,98,-99.99,,,-99.99,meteohub,2014-01-02 10:52:00,
2014-01-02 10:57:00,50.2,49.6,29.16,NNW,338,1.0,5.0,98,-99.99,,,-99.99,meteohub,2014-01-02 10:57:00,
2014-01-02 11:02:00,50.0,49.1,29.16,North,0,4.0,4.0,97,-99.99,,,-99.99,meteohub,2014-01-02 11:02:00,
2014-01-02 11:07:00,50.4,46.9,29.16,WNW,292,0.0,6.0,88,-99.99,,,-99.99,meteohub,2014-01-02 11:07:00,
2014-01-02 11:12:00,51.6,48.2,29.16,NNE,22,1.0,6.0,88,-99.99,,,-99.99,meteohub,2014-01-02 11:12:00,
2014-01-02 11:17:00,51.8,46.8,29.16,NNE,22,3.0,6.0,83,-99.99,,,-99.99,meteohub,2014-01-02 11:17:00,
2014-01-02 11:22:00,52.3,46.9,29.16,West,270,2.0,6.0,82,-99.99,,,-99.99,meteohub,2014-01-02 11:22:00,
2014-01-02 11:27:00,52.2,45.1,29.16,NNE,22,3.0,6.0,77,-99.99,,,-99.99,meteohub,2014-01-02 11:27:00,
2014-01-02 11:32:00,52.0,43.9,29.16,NE,45,4.0,6.0,74,-99.99,,,-99.99,meteohub,2014-01-02 11:32:00,
2014-01-02 11:37:00,52.0,43.9,29.16,South,180,2.0,6.0,74,-99.99,,,-99.99,meteohub,2014-01-02 11:37:00,
2014-01-02 11:42:00,52.0,43.7,29.16,ENE,68,5.0,10.0,73,-99.99,,,-99.99,meteohub,2014-01-02 11:42:00,
2014-01-02 11:47:00,53.1,45.3,29.16,ESE,112,2.0,10.0,75,-99.99,,,-99.99,meteohub,2014-01-02 11:47:00,
2014-01-02 11:52:00,52.9,44.8,29.16,ENE,68,3.0,6.0,74,-99.99,,,-99.99,meteohub,2014-01-02 11:52:00,
2014-01-02 11:57:00,52.5,43.7,29.16,ENE,68,3.0,5.0,72,-99.99,,,-99.99,meteohub,2014-01-02 11:57:00,
2014-01-02 12:02:00,52.3,43.2,29.16,NNW,338,6.0,6.0,71,-99.99,,,-99.99,meteohub,2014-01-02 12:02:00,
2014-01-02 12:07:00,52.5,43.7,29.16,NNW,338,3.0,8.0,72,-99.99,,,-99.99,meteohub,2014-01-02 12:07:00,
2014-01-02 12:12:00,52.2,43.3,29.16,NE,45,6.0,8.0,72,-99.99,,,-99.99,meteohub,2014-01-02 12:12:00,
2014-01-02 12:17:00,52.0,43.3,29.16,NNE,22,9.0,9.0,72,-99.99,,,-99.99,meteohub,2014-01-02 12:17:00,
2014-01-02 12:22:00,52.3,43.5,29.16,NNW,338,4.0,9.0,72,-99.99,,,-99.99,meteohub,2014-01-02 12:22:00,
2014-01-02 12:27:00,52.7,43.9,29.16,NNW,338,6.0,9.0,72,-99.99,,,-99.99,meteohub,2014-01-02 12:27:00,
2014-01-02 12:32:00,52.9,44.1,29.16,WNW,292,1.0,9.0,72,-99.99,,,-99.99,meteohub,2014-01-02 12:32:00,
2014-01-02 12:37:00,51.6,42.6,29.16,WNW,292,3.0,9.0,71,-99.99,,,-99.99,meteohub,2014-01-02 12:37:00,
2014-01-02 12:42:00,50.5,42.3,29.16,NNE,22,6.0,6.0,73,-99.99,,,-99.99,meteohub,2014-01-02 12:42:00,
2014-01-02 12:47:00,51.4,43.5,29.19,NNW,338,2.0,6.0,74,-99.99,,,-99.99,meteohub,2014-01-02 12:47:00,
2014-01-02 12:52:00,51.8,43.5,29.19,NNE,22,2.0,6.0,73,-99.99,,,-99.99,meteohub,2014-01-02 12:52:00,
2014-01-02 12:57:00,52.0,42.8,29.19,West,270,3.0,9.0,71,-99.99,,,-99.99,meteohub,2014-01-02 12:57:00,
2014-01-02 13:02:00,52.2,43.3,29.19,NNW,338,4.0,9.0,72,-99.99,,,-99.99,meteohub,2014-01-02 13:02:00,
2014-01-02 13:07:00,52.3,43.2,29.19,NNW,338,3.0,9.0,71,-99.99,,,-99.99,meteohub,2014-01-02 13:07:00,
2014-01-02 13:12:00,52.2,43.0,29.19,NE,45,4.0,6.0,71,-99.99,,,-99.99,meteohub,2014-01-02 13:12:00,
2014-01-02 13:17:00,52.0,42.4,29.19,South,180,3.0,9.0,70,-99.99,,,-99.99,meteohub,2014-01-02 13:17:00,
2014-01-02 13:22:00,52.2,42.6,29.19,NW,315,2.0,9.0,70,-99.99,,,-99.99,meteohub,2014-01-02 13:22:00,
2014-01-02 13:27:00,52.2,42.3,29.19,East,90,4.0,9.0,69,-99.99,,,-99.99,meteohub,2014-01-02 13:27:00,
2014-01-02 13:32:00,52.0,42.1,29.19,SW,225,4.0,10.0,69,-99.99,,,-99.99,meteohub,2014-01-02 13:32:00,
2014-01-02 13:37:00,52.2,42.6,29.19,WNW,292,3.0,10.0,70,-99.99,,,-99.99,meteohub,2014-01-02 13:37:00,
2014-01-02 13:42:00,51.6,42.3,29.19,WSW,248,1.0,10.0,70,-99.99,,,-99.99,meteohub,2014-01-02 13:42:00,
2014-01-02 13:47:00,50.2,41.9,29.19,NNW,338,2.0,8.0,73,-99.99,,,-99.99,meteohub,2014-01-02 13:47:00,
2014-01-02 13:52:00,50.0,42.1,29.19,WNW,292,5.0,6.0,74,-99.99,,,-99.99,meteohub,2014-01-02 13:52:00,
2014-01-02 13:57:00,50.0,42.1,29.19,ESE,112,3.0,6.0,74,-99.99,,,-99.99,meteohub,2014-01-02 13:57:00,
2014-01-02 14:02:00,49.8,42.6,29.19,SW,225,3.0,9.0,76,-99.99,,,-99.99,meteohub,2014-01-02 14:02:00,
2014-01-02 14:07:00,49.8,42.6,29.19,ENE,68,3.0,9.0,76,-99.99,,,-99.99,meteohub,2014-01-02 14:07:00,
2014-01-02 14:12:00,50.0,43.2,29.19,NNW,338,2.0,9.0,77,-99.99,,,-99.99,meteohub,2014-01-02 14:12:00,
2014-01-02 14:17:00,50.2,43.3,29.19,NNE,22,4.0,4.0,77,-99.99,,,-99.99,meteohub,2014-01-02 14:17:00,
2014-01-02 14:22:00,50.4,43.5,29.19,ESE,112,3.0,6.0,77,-99.99,,,-99.99,meteohub,2014-01-02 14:22:00,
2014-01-02 14:27:00,50.5,43.7,29.19,WSW,248,3.0,6.0,77,-99.99,,,-99.99,meteohub,2014-01-02 14:27:00,
2014-01-02 14:32:00,50.7,44.1,29.19,NNE,22,2.0,6.0,78,-99.99,,,-99.99,meteohub,2014-01-02 14:32:00,
2014-01-02 14:37:00,50.7,43.5,29.19,West,270,2.0,6.0,76,-99.99,,,-99.99,meteohub,2014-01-02 14:37:00,
2014-01-02 14:42:00,50.4,42.8,29.19,WNW,292,6.0,7.0,75,-99.99,,,-99.99,meteohub,2014-01-02 14:42:00,
2014-01-02 14:47:00,49.8,43.0,29.19,WNW,292,2.0,7.0,77,-99.99,,,-99.99,meteohub,2014-01-02 14:47:00,
2014-01-02 14:52:00,49.6,42.4,29.19,NNW,338,1.0,7.0,76,-99.99,,,-99.99,meteohub,2014-01-02 14:52:00,
2014-01-02 14:57:00,49.1,42.6,29.19,West,270,1.0,6.0,78,-99.99,,,-99.99,meteohub,2014-01-02 14:57:00,
2014-01-02 15:02:00,48.9,42.6,29.19,WNW,292,5.0,5.0,79,-99.99,,,-99.99,meteohub,2014-01-02 15:02:00,
2014-01-02 15:07:00,48.7,42.8,29.19,North,0,2.0,5.0,80,-99.99,,,-99.99,meteohub,2014-01-02 15:07:00,
2014-01-02 15:12:00,48.7,42.8,29.19,WNW,292,2.0,5.0,80,-99.99,,,-99.99,meteohub,2014-01-02 15:12:00,
2014-01-02 15:17:00,48.7,43.5,29.22,WNW,292,6.0,6.0,82,-99.99,,,-99.99,meteohub,2014-01-02 15:17:00,
2014-01-02 15:22:00,48.7,43.5,29.22,NNW,338,2.0,6.0,82,-99.99,,,-99.99,meteohub,2014-01-02 15:22:00,
2014-01-02 15:27:00,48.7,43.9,29.22,NW,315,4.0,6.0,83,-99.99,,,-99.99,meteohub,2014-01-02 15:27:00,
2014-01-02 15:32:00,48.7,43.9,29.19,West,270,3.0,6.0,83,-99.99,,,-99.99,meteohub,2014-01-02 15:32:00,
2014-01-02 15:37:00,48.4,43.5,29.19,West,270,3.0,6.0,83,-99.99,,,-99.99,meteohub,2014-01-02 15:37:00,
2014-01-02 15:42:00,48.4,43.5,29.19,WNW,292,3.0,5.0,83,-99.99,,,-99.99,meteohub,2014-01-02 15:42:00,
2014-01-02 15:47:00,48.2,43.9,29.19,WNW,292,2.0,5.0,85,-99.99,,,-99.99,meteohub,2014-01-02 15:47:00,
2014-01-02 15:52:00,47.8,43.9,29.19,WNW,292,1.0,5.0,86,-99.99,,,-99.99,meteohub,2014-01-02 15:52:00,
2014-01-02 15:57:00,47.8,44.2,29.19,NNW,338,3.0,4.0,87,-99.99,,,-99.99,meteohub,2014-01-02 15:57:00,
2014-01-02 16:02:00,47.8,44.4,29.19,West,270,3.0,6.0,88,-99.99,,,-99.99,meteohub,2014-01-02 16:02:00,
2014-01-02 16:07:00,47.7,44.6,29.19,NNW,338,2.0,6.0,89,-99.99,,,-99.99,meteohub,2014-01-02 16:07:00,
2014-01-02 16:12:00,47.7,45.0,29.19,NNW,338,4.0,4.0,90,-99.99,,,-99.99,meteohub,2014-01-02 16:12:00,
2014-01-02 16:17:00,47.7,45.1,29.19,NNW,338,3.0,4.0,91,-99.99,,,-99.99,meteohub,2014-01-02 16:17:00,
2014-01-02 16:22:00,47.7,45.1,29.19,NNW,338,1.0,4.0,91,-99.99,,,-99.99,meteohub,2014-01-02 16:22:00,
2014-01-02 16:27:00,47.8,45.7,29.19,SW,225,2.0,4.0,92,-99.99,,,-99.99,meteohub,2014-01-02 16:27:00,
2014-01-02 16:32:00,47.8,45.7,29.19,NW,315,3.0,6.0,92,-99.99,,,-99.99,meteohub,2014-01-02 16:32:00,
2014-01-02 16:37:00,48.0,45.9,29.19,NNW,338,2.0,6.0,92,-99.99,,,-99.99,meteohub,2014-01-02 16:37:00,
2014-01-02 16:42:00,47.7,45.5,29.19,WNW,292,2.0,6.0,92,-99.99,,,-99.99,meteohub,2014-01-02 16:42:00,
2014-01-02 16:47:00,47.5,45.3,29.19,WSW,248,2.0,6.0,92,-99.99,,,-99.99,meteohub,2014-01-02 16:47:00,
2014-01-02 16:52:00,47.3,45.1,29.19,East,90,2.0,6.0,92,-99.99,,,-99.99,meteohub,2014-01-02 16:52:00,
2014-01-02 16:57:00,47.1,45.0,29.19,WSW,248,3.0,4.0,92,-99.99,,,-99.99,meteohub,2014-01-02 16:57:00,
2014-01-02 17:02:00,47.1,45.1,29.22,WNW,292,3.0,5.0,93,-99.99,,,-99.99,meteohub,2014-01-02 17:02:00,
2014-01-02 17:07:00,46.8,45.1,29.22,WNW,292,3.0,5.0,94,-99.99,,,-99.99,meteohub,2014-01-02 17:07:00,
2014-01-02 17:12:00,46.6,44.6,29.22,WNW,292,3.0,5.0,93,-99.99,,,-99.99,meteohub,2014-01-02 17:12:00,
2014-01-02 17:17:00,46.4,44.4,29.19,WSW,248,4.0,4.0,93,-99.99,,,-99.99,meteohub,2014-01-02 17:17:00,
2014-01-02 17:22:00,46.2,44.6,29.19,NNW,338,4.0,5.0,94,-99.99,,,-99.99,meteohub,2014-01-02 17:22:00,
2014-01-02 17:27:00,46.4,45.0,29.19,West,270,4.0,6.0,95,-99.99,,,-99.99,meteohub,2014-01-02 17:27:00,
2014-01-02 17:32:00,46.6,45.5,29.19,NNE,22,3.0,6.0,96,-99.99,,,-99.99,meteohub,2014-01-02 17:32:00,
2014-01-02 17:37:00,46.6,45.5,29.19,WNW,292,2.0,6.0,96,-99.99,,,-99.99,meteohub,2014-01-02 17:37:00,
2014-01-02 17:42:00,46.6,45.9,29.19,WNW,292,3.0,6.0,97,-99.99,,,-99.99,meteohub,2014-01-02 17:42:00,
2014-01-02 17:47:00,46.8,46.2,29.19,NE,45,3.0,6.0,98,-99.99,,,-99.99,meteohub,2014-01-02 17:47:00,
2014-01-02 17:52:00,46.9,46.4,29.19,WNW,292,3.0,6.0,98,-99.99,,,-99.99,meteohub,2014-01-02 17:52:00,
2014-01-02 17:57:00,46.9,46.4,29.19,West,270,4.0,5.0,98,-99.99,,,-99.99,meteohub,2014-01-02 17:57:00,
2014-01-02 18:02:00,47.1,46.6,29.19,NNE,22,4.0,5.0,98,-99.99,,,-99.99,meteohub,2014-01-02 18:02:00,
2014-01-02 18:07:00,47.1,46.6,29.19,NNW,338,4.0,5.0,98,-99.99,,,-99.99,meteohub,2014-01-02 18:07:00,
2014-01-02 18:12:00,47.1,46.4,29.19,NNW,338,2.0,5.0,97,-99.99,,,-99.99,meteohub,2014-01-02 18:12:00,
2014-01-02 18:17:00,47.1,46.4,29.19,NW,315,1.0,6.0,97,-99.99,,,-99.99,meteohub,2014-01-02 18:17:00,
2014-01-02 18:22:00,47.1,46.4,29.19,South,180,3.0,6.0,97,-99.99,,,-99.99,meteohub,2014-01-02 18:22:00,
2014-01-02 18:27:00,47.1,46.4,29.19,NNW,338,4.0,6.0,97,-99.99,,,-99.99,meteohub,2014-01-02 18:27:00,
2014-01-02 18:32:00,47.1,46.0,29.19,WNW,292,2.0,6.0,96,-99.99,,,-99.99,meteohub,2014-01-02 18:32:00,
2014-01-02 18:37:00,46.8,45.7,29.19,WNW,292,3.0,7.0,96,-99.99,,,-99.99,meteohub,2014-01-02 18:37:00,
2014-01-02 18:42:00,46.8,45.7,29.19,WNW,292,2.0,7.0,96,-99.99,,,-99.99,meteohub,2014-01-02 18:42:00,
2014-01-02 18:47:00,46.9,45.9,29.19,WNW,292,4.0,7.0,96,-99.99,,,-99.99,meteohub,2014-01-02 18:47:00,
2014-01-02 18:52:00,46.9,45.9,29.19,West,270,3.0,6.0,96,-99.99,,,-99.99,meteohub,2014-01-02 18:52:00,
2014-01-02 18:57:00,46.9,45.9,29.19,WNW,292,2.0,6.0,96,-99.99,,,-99.99,meteohub,2014-01-02 18:57:00,
2014-01-02 19:02:00,46.9,45.9,29.19,NNE,22,2.0,6.0,96,-99.99,,,-99.99,meteohub,2014-01-02 19:02:00,
2014-01-02 19:07:00,46.9,45.9,29.19,NNW,338,2.0,5.0,96,-99.99,,,-99.99,meteohub,2014-01-02 19:07:00,
2014-01-02 19:12:00,46.8,45.7,29.19,ESE,112,2.0,4.0,96,-99.99,,,-99.99,meteohub,2014-01-02 19:12:00,
2014-01-02 19:17:00,46.9,45.9,29.19,WSW,248,2.0,4.0,96,-99.99,,,-99.99,meteohub,2014-01-02 19:17:00,
2014-01-02 19:22:00,47.1,46.0,29.19,WSW,248,3.0,4.0,96,-99.99,,,-99.99,meteohub,2014-01-02 19:22:00,
2014-01-02 19:27:00,47.1,46.0,29.19,NNW,338,3.0,6.0,96,-99.99,,,-99.99,meteohub,2014-01-02 19:27:00,
2014-01-02 19:32:00,47.1,46.0,29.19,NNW,338,4.0,6.0,96,-99.99,,,-99.99,meteohub,2014-01-02 19:32:00,
2014-01-02 19:37:00,47.1,46.4,29.19,SSW,202,3.0,6.0,97,-99.99,,,-99.99,meteohub,2014-01-02 19:37:00,
2014-01-02 19:42:00,47.1,46.4,29.19,NNW,338,4.0,5.0,97,-99.99,,,-99.99,meteohub,2014-01-02 19:42:00,
2014-01-02 19:47:00,47.1,46.4,29.16,WSW,248,2.0,5.0,97,-99.99,,,-99.99,meteohub,2014-01-02 19:47:00,
2014-01-02 19:52:00,47.3,46.8,29.16,West,270,1.0,5.0,98,-99.99,,,-99.99,meteohub,2014-01-02 19:52:00,
2014-01-02 19:57:00,47.3,46.8,29.16,NW,315,3.0,4.0,98,-99.99,,,-99.99,meteohub,2014-01-02 19:57:00,
2014-01-02 20:02:00,47.5,46.9,29.16,SE,135,4.0,6.0,98,-99.99,,,-99.99,meteohub,2014-01-02 20:02:00,
2014-01-02 20:07:00,47.5,46.9,29.16,West,270,2.0,6.0,98,-99.99,,,-99.99,meteohub,2014-01-02 20:07:00,
2014-01-02 20:12:00,47.5,46.9,29.16,WNW,292,6.0,6.0,98,-99.99,,,-99.99,meteohub,2014-01-02 20:12:00,
2014-01-02 20:17:00,47.7,47.1,29.16,WNW,292,4.0,6.0,98,-99.99,,,-99.99,meteohub,2014-01-02 20:17:00,
2014-01-02 20:22:00,47.8,47.3,29.16,NNW,338,6.0,6.0,98,-99.99,,,-99.99,meteohub,2014-01-02 20:22:00,
2014-01-02 20:27:00,48.0,47.5,29.16,WSW,248,3.0,6.0,98,-99.99,,,-99.99,meteohub,2014-01-02 20:27:00,
2014-01-02 20:32:00,48.2,47.7,29.16,WSW,248,3.0,6.0,98,-99.99,,,-99.99,meteohub,2014-01-02 20:32:00,
2014-01-02 20:37:00,48.2,47.7,29.16,NNW,338,2.0,6.0,98,-99.99,,,-99.99,meteohub,2014-01-02 20:37:00,
2014-01-02 20:42:00,48.4,47.8,29.16,WNW,292,3.0,7.0,98,-99.99,,,-99.99,meteohub,2014-01-02 20:42:00,
2014-01-02 20:47:00,48.6,48.0,29.16,NW,315,8.0,8.0,98,-99.99,,,-99.99,meteohub,2014-01-02 20:47:00,
2014-01-02 20:52:00,48.6,48.0,29.16,SSE,158,4.0,8.0,98,-99.99,,,-99.99,meteohub,2014-01-02 20:52:00,
2014-01-02 20:57:00,48.7,48.2,29.16,WNW,292,3.0,8.0,98,-99.99,,,-99.99,meteohub,2014-01-02 20:57:00,
2014-01-02 21:02:00,48.7,48.2,29.13,West,270,2.0,8.0,98,-99.99,,,-99.99,meteohub,2014-01-02 21:02:00,
2014-01-02 21:07:00,48.9,48.4,29.13,NNE,22,4.0,8.0,98,-99.99,,,-99.99,meteohub,2014-01-02 21:07:00,
2014-01-02 21:12:00,48.9,48.4,29.13,NNW,338,3.0,6.0,98,-99.99,,,-99.99,meteohub,2014-01-02 21:12:00,
2014-01-02 21:17:00,48.9,48.4,29.13,NNE,22,3.0,6.0,98,-99.99,,,-99.99,meteohub,2014-01-02 21:17:00,
2014-01-02 21:22:00,49.1,48.6,29.13,NNW,338,3.0,8.0,98,-99.99,,,-99.99,meteohub,2014-01-02 21:22:00,
2014-01-02 21:27:00,49.3,48.7,29.13,NNW,338,3.0,8.0,98,-99.99,,,-99.99,meteohub,2014-01-02 21:27:00,
2014-01-02 21:32:00,49.3,48.7,29.13,WSW,248,3.0,9.0,98,-99.99,,,-99.99,meteohub,2014-01-02 21:32:00,
2014-01-02 21:37:00,49.3,48.4,29.13,WNW,292,3.0,9.0,97,-99.99,,,-99.99,meteohub,2014-01-02 21:37:00,
2014-01-02 21:42:00,49.5,48.6,29.13,WNW,292,6.0,6.0,97,-99.99,,,-99.99,meteohub,2014-01-02 21:42:00,
2014-01-02 21:47:00,49.5,48.6,29.13,NNW,338,4.0,9.0,97,-99.99,,,-99.99,meteohub,2014-01-02 21:47:00,
2014-01-02 21:52:00,49.6,48.6,29.13,WSW,248,2.0,9.0,96,-99.99,,,-99.99,meteohub,2014-01-02 21:52:00,
2014-01-02 21:57:00,49.6,48.6,29.13,WNW,292,9.0,9.0,96,-99.99,,,-99.99,meteohub,2014-01-02 21:57:00,
2014-01-02 22:02:00,49.8,48.7,29.10,ENE,68,10.0,10.0,96,-99.99,,,-99.99,meteohub,2014-01-02 22:02:00,
2014-01-02 22:07:00,49.8,48.7,29.10,South,180,3.0,10.0,96,-99.99,,,-99.99,meteohub,2014-01-02 22:07:00,
2014-01-02 22:12:00,49.8,48.7,29.10,NNW,338,3.0,10.0,96,-99.99,,,-99.99,meteohub,2014-01-02 22:12:00,
2014-01-02 22:17:00,49.8,48.4,29.13,NNE,22,3.0,10.0,95,-99.99,,,-99.99,meteohub,2014-01-02 22:17:00,
2014-01-02 22:22:00,50.0,48.6,29.13,WNW,292,5.0,9.0,95,-99.99,,,-99.99,meteohub,2014-01-02 22:22:00,
2014-01-02 22:27:00,50.0,48.6,29.13,WSW,248,3.0,9.0,95,-99.99,,,-99.99,meteohub,2014-01-02 22:27:00,
2014-01-02 22:32:00,50.2,48.7,29.10,WNW,292,6.0,9.0,95,-99.99,,,-99.99,meteohub,2014-01-02 22:32:00,
2014-01-02 22:37:00,50.2,48.6,29.10,WSW,248,6.0,9.0,94,-99.99,,,-99.99,meteohub,2014-01-02 22:37:00,
2014-01-02 22:42:00,50.2,48.6,29.10,NNE,22,7.0,9.0,94,-99.99,,,-99.99,meteohub,2014-01-02 22:42:00,
2014-01-02 22:47:00,50.4,48.7,29.10,WNW,292,3.0,11.0,94,-99.99,,,-99.99,meteohub,2014-01-02 22:47:00,
2014-01-02 22:52:00,50.4,48.7,29.10,NNE,22,6.0,11.0,94,-99.99,,,-99.99,meteohub,2014-01-02 22:52:00,
2014-01-02 22:57:00,50.4,48.7,29.10,West,270,4.0,11.0,94,-99.99,,,-99.99,meteohub,2014-01-02 22:57:00,
2014-01-02 23:02:00,50.4,48.7,29.07,NNW,338,5.0,8.0,94,-99.99,,,-99.99,meteohub,2014-01-02 23:02:00,
2014-01-02 23:12:00,50.5,48.9,29.07,WNW,292,4.0,10.0,94,-99.99,,,-99.99,meteohub,2014-01-02 23:12:00,
2014-01-02 23:17:00,50.5,49.1,29.07,West,270,4.0,12.0,95,-99.99,,,-99.99,meteohub,2014-01-02 23:17:00,
2014-01-02 23:22:00,50.2,49.3,29.07,WSW,248,2.0,12.0,97,-99.99,,,-99.99,meteohub,2014-01-02 23:22:00,
2014-01-02 23:27:00,50.2,49.6,29.07,NNE,22,3.0,12.0,98,-99.99,,,-99.99,meteohub,2014-01-02 23:27:00,
2014-01-02 23:37:00,49.6,49.1,29.07,NW,315,3.0,8.0,98,-99.99,,,-99.99,meteohub,2014-01-02 23:37:00,
2014-01-02 23:42:00,49.5,48.9,29.07,NE,45,5.0,8.0,98,-99.99,,,-99.99,meteohub,2014-01-02 23:42:00,
2014-01-02 23:47:00,49.5,48.9,29.04,NNW,338,6.0,8.0,98,-99.99,,,-99.99,meteohub,2014-01-02 23:47:00,
2014-01-02 23:52:00,49.3,48.7,29.04,NNW,338,6.0,8.0,98,-99.99,,,-99.99,meteohub,2014-01-02 23:52:00,
2014-01-02 23:57:00,49.3,48.7,29.04,North,0,5.0,8.0,98,-99.99,,,-99.99,meteohub,2014-01-02 23:57:00,